createdAt,value
2023-05-04T00:01:18.754Z,9.51
2023-05-04T00:03:47.960Z,9.61
2023-05-04T00:06:21.241Z,9.53
2023-05-04T00:08:49.257Z,9.53
2023-05-04T00:11:18.796Z,9.48
2023-05-04T00:13:46.663Z,9.25
2023-05-04T00:16:15.262Z,9.40
2023-05-04T00:18:43.904Z,9.31
2023-05-04T00:21:12.417Z,9.42
2023-05-04T00:23:43.306Z,9.42
2023-05-04T00:26:11.312Z,9.49
2023-05-04T00:28:42.354Z,9.56
2023-05-04T00:31:15.023Z,9.61
2023-05-04T00:33:43.296Z,9.62
2023-05-04T00:36:13.838Z,9.61
2023-05-04T00:38:51.794Z,9.58
2023-05-04T00:41:22.483Z,9.52
2023-05-04T00:43:50.815Z,9.74
2023-05-04T00:46:20.847Z,9.57
2023-05-04T00:48:52.180Z,9.59
2023-05-04T00:51:21.897Z,9.88
2023-05-04T00:53:54.132Z,9.85
2023-05-04T00:56:29.017Z,9.71
2023-05-04T00:58:58.384Z,9.79
2023-05-04T01:01:26.885Z,9.77
2023-05-04T01:03:57.107Z,9.97
2023-05-04T01:06:35.945Z,10.03
2023-05-04T01:09:12.252Z,9.91
2023-05-04T01:11:45.563Z,9.84
2023-05-04T01:14:17.762Z,9.81
2023-05-04T01:16:48.796Z,9.77
2023-05-04T01:19:18.212Z,9.72
2023-05-04T01:21:47.989Z,9.71
2023-05-04T01:24:16.320Z,9.68
2023-05-04T01:26:53.455Z,9.73
2023-05-04T01:29:28.793Z,9.49
2023-05-04T01:32:01.460Z,9.39
2023-05-04T01:34:30.322Z,9.29
2023-05-04T01:37:00.824Z,9.06
2023-05-04T01:39:35.450Z,9.11
2023-05-04T01:42:07.350Z,9.19
2023-05-04T01:44:35.979Z,9.15
2023-05-04T01:47:04.489Z,9.12
2023-05-04T01:49:33.159Z,8.95
2023-05-04T01:52:05.677Z,8.82
2023-05-04T01:54:36.997Z,8.87
2023-05-04T01:57:05.974Z,9.07
2023-05-04T01:59:36.339Z,9.12
2023-05-04T02:02:05.322Z,8.99
2023-05-04T02:04:34.006Z,9.11
2023-05-04T02:07:04.620Z,9.04
2023-05-04T02:09:35.478Z,9.04
2023-05-04T02:12:05.354Z,8.95
2023-05-04T02:14:34.355Z,8.90
2023-05-04T02:17:03.264Z,8.80
2023-05-04T02:19:34.789Z,8.77
2023-05-04T02:22:04.715Z,8.78
2023-05-04T02:24:32.651Z,8.70
2023-05-04T02:27:01.881Z,8.83
2023-05-04T02:29:31.258Z,8.78
2023-05-04T02:32:00.045Z,8.79
2023-05-04T02:34:30.457Z,8.86
2023-05-04T02:37:02.133Z,8.91
2023-05-04T02:39:32.595Z,9.15
2023-05-04T02:42:01.536Z,8.83
2023-05-04T02:44:31.393Z,8.87
2023-05-04T02:47:02.839Z,8.99
2023-05-04T02:49:31.863Z,8.84
2023-05-04T02:51:59.999Z,8.85
2023-05-04T02:54:28.624Z,8.75
2023-05-04T02:56:59.088Z,8.65
2023-05-04T02:59:37.779Z,8.65
2023-05-04T03:02:07.131Z,8.78
2023-05-04T03:04:37.923Z,8.85
2023-05-04T03:07:06.104Z,8.76
2023-05-04T03:09:34.395Z,8.69
2023-05-04T03:12:09.073Z,8.82
2023-05-04T03:14:37.055Z,8.70
2023-05-04T03:17:05.095Z,8.59
2023-05-04T03:19:33.520Z,8.77
2023-05-04T03:22:03.001Z,8.83
2023-05-04T03:24:33.466Z,8.59
2023-05-04T03:27:01.830Z,8.48
2023-05-04T03:29:33.821Z,8.55
2023-05-04T03:32:03.158Z,8.61
2023-05-04T03:34:31.711Z,8.48
2023-05-04T03:37:08.202Z,8.56
2023-05-04T03:39:36.570Z,8.67
2023-05-04T03:42:05.148Z,8.53
2023-05-04T03:44:37.260Z,8.44
2023-05-04T03:47:07.878Z,8.47
2023-05-04T03:49:36.947Z,8.52
2023-05-04T03:52:07.602Z,8.46
2023-05-04T03:54:35.494Z,8.34
2023-05-04T03:57:06.325Z,8.42
2023-05-04T03:59:37.217Z,8.46
2023-05-04T04:02:08.436Z,8.61
2023-05-04T04:04:37.310Z,8.38
2023-05-04T04:07:05.421Z,8.50
2023-05-04T04:09:35.246Z,8.84
2023-05-04T04:12:04.041Z,8.62
2023-05-04T04:14:32.894Z,8.58
2023-05-04T04:17:03.468Z,8.60
2023-05-04T04:19:32.670Z,8.73
2023-05-04T04:22:04.797Z,8.59
2023-05-04T04:24:36.892Z,8.81
2023-05-04T04:27:06.043Z,8.99
2023-05-04T04:29:35.617Z,8.93
2023-05-04T04:32:05.589Z,9.00
2023-05-04T04:34:34.125Z,8.89
2023-05-04T04:37:05.164Z,9.24
2023-05-04T04:39:34.094Z,9.23
2023-05-04T04:42:11.240Z,9.00
2023-05-04T04:44:39.289Z,9.12
2023-05-04T04:47:13.966Z,9.37
2023-05-04T04:49:50.336Z,9.30
2023-05-04T04:52:20.886Z,9.16
2023-05-04T04:54:49.078Z,9.16
2023-05-04T04:57:17.046Z,9.12
2023-05-04T04:59:51.738Z,9.39
2023-05-04T05:02:21.000Z,9.26
2023-05-04T05:04:50.397Z,9.78
2023-05-04T05:07:18.848Z,9.85
2023-05-04T05:09:48.293Z,9.97
2023-05-04T05:12:17.076Z,9.97
2023-05-04T05:14:51.899Z,10.06
2023-05-04T05:17:22.430Z,10.11
2023-05-04T05:19:53.323Z,10.16
2023-05-04T05:22:21.585Z,10.30
2023-05-04T05:24:50.567Z,10.07
2023-05-04T05:27:20.323Z,10.16
2023-05-04T05:29:51.027Z,10.13
2023-05-04T05:32:21.770Z,10.21
2023-05-04T05:34:54.354Z,10.45
2023-05-04T05:37:24.709Z,10.32
2023-05-04T05:39:53.927Z,10.47
2023-05-04T05:42:23.145Z,10.48
2023-05-04T05:44:52.472Z,10.50
2023-05-04T05:47:21.063Z,10.53
2023-05-04T05:49:53.130Z,10.60
2023-05-04T05:52:24.357Z,11.03
2023-05-04T05:54:52.657Z,11.02
2023-05-04T05:57:21.315Z,10.98
2023-05-04T05:59:52.901Z,11.09
2023-05-04T06:02:22.950Z,11.12
2023-05-04T06:04:53.860Z,11.10
2023-05-04T06:07:26.960Z,11.07
2023-05-04T06:09:55.207Z,11.32
2023-05-04T06:12:23.900Z,11.49
2023-05-04T06:14:55.106Z,11.55
2023-05-04T06:17:27.712Z,11.74
2023-05-04T06:19:57.027Z,11.56
2023-05-04T06:22:25.906Z,12.09
2023-05-04T06:25:02.152Z,11.86
2023-05-04T06:27:40.245Z,11.89
2023-05-04T06:30:10.839Z,12.14
2023-05-04T06:32:43.509Z,12.08
2023-05-04T06:35:14.914Z,12.18
2023-05-04T06:37:44.551Z,12.54
2023-05-04T06:40:16.629Z,12.06
2023-05-04T06:42:47.349Z,11.99
2023-05-04T06:45:17.886Z,12.13
2023-05-04T06:47:46.178Z,12.78
2023-05-04T06:50:16.839Z,12.70
2023-05-04T06:52:46.464Z,12.63
2023-05-04T06:55:14.943Z,12.94
2023-05-04T06:57:43.249Z,13.10
2023-05-04T07:00:13.302Z,13.00
2023-05-04T07:02:42.731Z,13.12
2023-05-04T07:05:12.160Z,13.43
2023-05-04T07:07:44.633Z,13.57
2023-05-04T07:10:15.243Z,13.35
2023-05-04T07:12:43.850Z,13.42
2023-05-04T07:15:12.408Z,13.62
2023-05-04T07:17:46.216Z,13.42
2023-05-04T07:20:16.250Z,13.72
2023-05-04T07:22:45.849Z,13.58
2023-05-04T07:25:15.017Z,13.44
2023-05-04T07:27:45.483Z,13.75
2023-05-04T07:30:16.721Z,13.69
2023-05-04T07:32:46.697Z,13.38
2023-05-04T07:35:15.456Z,13.54
2023-05-04T07:37:45.433Z,14.02
2023-05-04T07:40:15.302Z,14.09
2023-05-04T07:42:47.955Z,14.05
2023-05-04T07:45:17.440Z,13.99
2023-05-04T07:47:54.564Z,14.38
2023-05-04T07:50:23.491Z,14.46
2023-05-04T07:52:53.073Z,14.61
2023-05-04T07:55:21.176Z,14.63
2023-05-04T07:57:49.367Z,14.45
2023-05-04T08:00:27.137Z,14.49
2023-05-04T08:02:55.195Z,14.73
2023-05-04T08:05:27.373Z,14.89
2023-05-04T08:08:02.319Z,15.14
2023-05-04T08:10:32.002Z,15.43
2023-05-04T08:13:01.623Z,15.47
2023-05-04T08:15:35.115Z,15.74
2023-05-04T08:18:05.006Z,16.04
2023-05-04T08:20:34.677Z,16.42
2023-05-04T08:23:06.926Z,16.61
2023-05-04T08:25:36.364Z,16.74
2023-05-04T08:28:07.955Z,16.92
2023-05-04T08:30:37.539Z,16.69
2023-05-04T08:33:06.467Z,16.74
2023-05-04T08:35:38.156Z,16.63
2023-05-04T08:38:08.764Z,16.73
2023-05-04T08:40:43.966Z,17.38
2023-05-04T08:43:16.256Z,17.37
2023-05-04T08:45:44.884Z,16.98
2023-05-04T08:48:15.600Z,17.42
2023-05-04T08:50:44.357Z,17.99
2023-05-04T08:53:16.326Z,17.68
2023-05-04T08:55:48.204Z,17.90
2023-05-04T08:58:20.252Z,17.83
2023-05-04T09:00:49.141Z,17.55
2023-05-04T09:03:20.023Z,17.77
2023-05-04T09:05:51.763Z,17.93
2023-05-04T09:08:21.917Z,18.28
2023-05-04T09:10:50.591Z,18.47
2023-05-04T09:13:19.119Z,18.42
2023-05-04T09:15:55.978Z,18.48
2023-05-04T09:18:24.677Z,18.89
2023-05-04T09:20:53.853Z,18.49
2023-05-04T09:23:23.333Z,18.41
2023-05-04T09:25:53.789Z,18.89
2023-05-04T09:28:34.683Z,18.81
2023-05-04T09:31:06.321Z,18.63
2023-05-04T09:33:37.077Z,18.94
2023-05-04T09:36:15.793Z,19.04
2023-05-04T09:38:47.621Z,18.85
2023-05-04T09:41:17.090Z,19.09
2023-05-04T09:43:47.638Z,19.03
2023-05-04T09:46:19.434Z,19.14
2023-05-04T09:48:55.295Z,19.18
2023-05-04T09:51:27.352Z,19.41
2023-05-04T09:54:01.792Z,19.06
2023-05-04T09:56:41.432Z,19.61
2023-05-04T09:59:13.899Z,19.53
2023-05-04T10:01:44.802Z,19.38
2023-05-04T10:04:13.520Z,19.46
2023-05-04T10:06:48.446Z,19.64
2023-05-04T10:09:22.699Z,19.44
2023-05-04T10:11:52.283Z,19.83
2023-05-04T10:14:20.714Z,19.67
2023-05-04T10:16:58.511Z,20.01
2023-05-04T10:19:44.035Z,20.20
2023-05-04T10:22:22.219Z,20.14
2023-05-04T10:25:32.005Z,20.27
2023-05-04T10:28:11.604Z,20.07
2023-05-04T10:30:41.741Z,20.14
2023-05-04T10:33:16.500Z,20.40
2023-05-04T10:35:53.009Z,20.55
2023-05-04T10:38:21.864Z,20.52
2023-05-04T10:40:53.701Z,20.75
2023-05-04T10:43:25.216Z,21.14
2023-05-04T10:45:56.844Z,21.27
2023-05-04T10:48:35.309Z,20.70
2023-05-04T10:51:07.316Z,21.07
2023-05-04T10:53:35.608Z,20.71
2023-05-04T10:56:05.759Z,20.73
2023-05-04T10:58:35.443Z,21.12
2023-05-04T11:01:13.250Z,21.39
2023-05-04T11:03:42.124Z,21.49
2023-05-04T11:06:19.621Z,21.64
2023-05-04T11:09:01.000Z,22.09
2023-05-04T11:11:38.015Z,22.22
2023-05-04T11:14:07.852Z,22.21
2023-05-04T11:16:36.682Z,22.16
2023-05-04T11:19:14.361Z,22.12
2023-05-04T11:21:42.515Z,22.25
2023-05-04T11:24:10.816Z,22.17
2023-05-04T11:26:50.298Z,22.10
2023-05-04T11:29:19.426Z,22.06
2023-05-04T11:31:55.929Z,22.16
2023-05-04T11:34:24.424Z,22.23
2023-05-04T11:36:54.661Z,22.67
2023-05-04T11:39:22.838Z,22.19
2023-05-04T11:41:52.356Z,22.30
2023-05-04T11:44:20.663Z,22.93
2023-05-04T11:46:51.941Z,22.42
2023-05-04T11:49:20.577Z,22.94
2023-05-04T11:51:49.846Z,23.42
2023-05-04T11:54:24.944Z,23.22
2023-05-04T11:56:59.023Z,22.97
2023-05-04T11:59:32.984Z,22.70
2023-05-04T12:02:03.860Z,22.93
2023-05-04T12:04:33.318Z,23.03
2023-05-04T12:07:09.929Z,23.10
2023-05-04T12:09:45.929Z,23.16
2023-05-04T12:12:19.181Z,23.68
2023-05-04T12:14:51.826Z,23.49
2023-05-04T12:17:21.697Z,23.73
2023-05-04T12:19:52.757Z,23.96
2023-05-04T12:22:33.009Z,23.78
2023-05-04T12:25:01.862Z,23.44
2023-05-04T12:27:34.042Z,23.42
2023-05-04T12:30:02.303Z,23.70
2023-05-04T12:32:32.748Z,23.94
2023-05-04T12:35:03.943Z,24.11
2023-05-04T12:37:32.603Z,23.90
2023-05-04T12:40:01.085Z,23.84
2023-05-04T12:42:29.866Z,24.53
2023-05-04T12:45:04.156Z,23.83
2023-05-04T12:47:32.904Z,23.97
2023-05-04T12:50:03.676Z,24.27
2023-05-04T12:52:32.271Z,24.36
2023-05-04T12:55:01.710Z,24.27
2023-05-04T12:57:34.815Z,24.22
2023-05-04T13:00:07.123Z,24.24
2023-05-04T13:02:36.538Z,24.28
2023-05-04T13:05:05.491Z,23.97
2023-05-04T13:07:36.719Z,24.38
2023-05-04T13:10:05.072Z,24.43
2023-05-04T13:12:34.095Z,24.37
2023-05-04T13:15:09.402Z,24.13
2023-05-04T13:17:47.856Z,24.17
2023-05-04T13:20:16.746Z,24.49
2023-05-04T13:22:50.572Z,24.35
2023-05-04T13:25:18.868Z,24.48
2023-05-04T13:27:47.145Z,24.84
2023-05-04T13:30:22.022Z,24.51
2023-05-04T13:32:51.207Z,24.70
2023-05-04T13:35:21.141Z,24.86
2023-05-04T13:37:49.723Z,24.97
2023-05-04T13:40:18.042Z,24.54
2023-05-04T13:42:46.920Z,24.64
2023-05-04T13:45:22.110Z,25.44
2023-05-04T13:48:06.680Z,26.12
2023-05-04T13:50:36.355Z,27.64
2023-05-04T13:53:05.874Z,29.16
2023-05-04T13:55:34.548Z,30.55
2023-05-04T13:58:10.431Z,30.41
2023-05-04T14:00:40.287Z,30.04
2023-05-04T14:03:13.609Z,30.77
2023-05-04T14:05:42.057Z,29.78
2023-05-04T14:08:10.266Z,30.37
2023-05-04T14:10:38.719Z,30.84
2023-05-04T14:13:13.981Z,31.04
2023-05-04T14:15:45.313Z,31.71
2023-05-04T14:18:18.407Z,31.28
2023-05-04T14:20:49.415Z,29.71
2023-05-04T14:23:18.206Z,29.50
2023-05-04T14:26:05.240Z,29.61
2023-05-04T14:28:36.510Z,30.10
2023-05-04T14:31:14.723Z,29.91
2023-05-04T14:33:47.181Z,32.09
2023-05-04T14:36:15.456Z,31.28
2023-05-04T14:38:44.899Z,32.17
2023-05-04T14:41:16.861Z,31.04
2023-05-04T14:43:46.159Z,29.97
2023-05-04T14:46:14.880Z,30.96
2023-05-04T14:48:55.908Z,30.50
2023-05-04T14:51:33.671Z,31.04
2023-05-04T14:54:05.507Z,30.96
2023-05-04T14:56:59.713Z,29.45
2023-05-04T14:59:29.441Z,30.56
2023-05-04T15:01:59.213Z,30.82
2023-05-04T15:04:33.683Z,31.41
2023-05-04T15:07:05.597Z,30.45
2023-05-04T15:09:36.273Z,29.18
2023-05-04T15:12:10.027Z,29.11
2023-05-04T15:14:38.306Z,29.60
2023-05-04T15:17:07.441Z,29.95
2023-05-04T15:19:41.021Z,29.85
2023-05-04T15:22:13.960Z,30.26
2023-05-04T15:24:42.342Z,29.87
2023-05-04T15:27:11.781Z,30.03
2023-05-04T15:29:46.143Z,29.33
2023-05-04T15:32:14.422Z,29.35
2023-05-04T15:34:53.804Z,28.91
2023-05-04T15:37:30.350Z,29.55
2023-05-04T15:40:01.743Z,29.88
2023-05-04T15:42:30.561Z,28.44
2023-05-04T15:44:59.952Z,27.88
2023-05-04T15:47:37.729Z,27.99
2023-05-04T15:50:10.948Z,28.59
2023-05-04T15:52:41.684Z,27.05
2023-05-04T15:55:23.723Z,27.14
2023-05-04T15:57:55.628Z,27.20
2023-05-04T16:00:23.826Z,27.27
2023-05-04T16:02:52.184Z,26.44
2023-05-04T16:05:24.430Z,26.75
2023-05-04T16:07:53.362Z,26.49
2023-05-04T16:10:23.228Z,26.16
2023-05-04T16:12:53.637Z,26.29
2023-05-04T16:15:22.432Z,25.79
2023-05-04T16:17:54.447Z,25.95
2023-05-04T16:20:24.466Z,25.53
2023-05-04T16:22:52.403Z,25.74
2023-05-04T16:25:23.062Z,25.66
2023-05-04T16:27:52.478Z,25.37
2023-05-04T16:30:21.807Z,25.23
2023-05-04T16:32:52.399Z,25.31
2023-05-04T16:35:26.380Z,24.91
2023-05-04T16:37:54.586Z,24.84
2023-05-04T16:40:24.840Z,24.71
2023-05-04T16:42:53.755Z,24.60
2023-05-04T16:45:25.340Z,24.62
2023-05-04T16:47:53.755Z,24.27
2023-05-04T16:50:24.783Z,24.42
2023-05-04T16:52:55.567Z,24.38
2023-05-04T16:55:26.472Z,24.25
2023-05-04T16:57:59.139Z,24.41
2023-05-04T17:00:27.372Z,24.32
2023-05-04T17:02:57.020Z,24.37
2023-05-04T17:05:26.744Z,23.98
2023-05-04T17:07:59.014Z,24.26
2023-05-04T17:10:27.563Z,24.12
2023-05-04T17:13:00.927Z,24.25
2023-05-04T17:15:30.418Z,24.13
2023-05-04T17:17:58.512Z,24.10
2023-05-04T17:20:31.797Z,23.98
2023-05-04T17:23:02.195Z,24.07
2023-05-04T17:25:30.277Z,23.94
2023-05-04T17:27:59.413Z,24.00
2023-05-04T17:30:28.884Z,23.76
2023-05-04T17:32:59.431Z,23.76
2023-05-04T17:35:30.042Z,23.58
2023-05-04T17:37:59.271Z,23.85
2023-05-04T17:40:31.181Z,23.83
2023-05-04T17:43:01.120Z,23.50
2023-05-04T17:45:31.923Z,23.37
2023-05-04T17:48:02.216Z,23.55
2023-05-04T17:50:30.879Z,23.66
2023-05-04T17:53:02.258Z,23.59
2023-05-04T17:55:32.877Z,23.71
2023-05-04T17:58:05.547Z,23.78
2023-05-04T18:00:34.570Z,24.09
2023-05-04T18:03:04.011Z,24.16
2023-05-04T18:05:42.869Z,24.28
2023-05-04T18:08:11.728Z,23.87
2023-05-04T18:10:43.481Z,23.76
2023-05-04T18:13:11.868Z,23.37
2023-05-04T18:15:41.389Z,23.42
2023-05-04T18:18:11.719Z,23.04
2023-05-04T18:20:41.949Z,22.77
2023-05-04T18:23:12.438Z,22.56
2023-05-04T18:25:46.797Z,22.32
2023-05-04T18:28:15.484Z,22.02
2023-05-04T18:30:44.417Z,21.96
2023-05-04T18:33:13.526Z,21.87
2023-05-04T18:35:42.883Z,21.62
2023-05-04T18:38:11.548Z,21.66
2023-05-04T18:40:41.398Z,21.47
2023-05-04T18:43:09.514Z,21.31
2023-05-04T18:45:38.042Z,21.10
2023-05-04T18:48:07.710Z,21.00
2023-05-04T18:50:36.978Z,20.93
2023-05-04T18:53:05.851Z,20.83
2023-05-04T18:55:35.921Z,20.72
2023-05-04T18:58:05.954Z,20.62
2023-05-04T19:00:45.303Z,20.41
2023-05-04T19:03:17.983Z,20.22
2023-05-04T19:05:46.087Z,20.28
2023-05-04T19:08:15.626Z,20.02
2023-05-04T19:10:43.819Z,19.81
2023-05-04T19:13:14.391Z,19.73
2023-05-04T19:15:51.120Z,19.65
2023-05-04T19:18:20.466Z,19.49
2023-05-04T19:20:51.461Z,19.21
2023-05-04T19:23:19.339Z,19.21
2023-05-04T19:25:49.508Z,19.12
2023-05-04T19:28:23.269Z,18.99
2023-05-04T19:30:57.078Z,18.87
2023-05-04T19:33:40.297Z,18.83
2023-05-04T19:36:17.000Z,18.43
2023-05-04T19:38:46.679Z,18.36
2023-05-04T19:41:16.271Z,18.35
2023-05-04T19:43:46.925Z,18.34
2023-05-04T19:46:16.585Z,18.10
2023-05-04T19:48:47.195Z,17.92
2023-05-04T19:51:18.403Z,17.86
2023-05-04T19:53:46.807Z,17.61
2023-05-04T19:56:19.893Z,17.64
2023-05-04T19:58:52.951Z,17.46
2023-05-04T20:01:22.635Z,17.36
2023-05-04T20:03:51.492Z,17.25
2023-05-04T20:06:21.411Z,17.01
2023-05-04T20:09:02.459Z,16.99
2023-05-04T20:11:33.754Z,16.97
2023-05-04T20:14:06.721Z,17.02
2023-05-04T20:16:35.201Z,17.00
2023-05-04T20:19:13.043Z,17.00
2023-05-04T20:21:41.025Z,16.92
2023-05-04T20:24:20.399Z,17.04
2023-05-04T20:26:48.644Z,16.84
2023-05-04T20:29:21.031Z,16.76
2023-05-04T20:31:51.204Z,16.78
2023-05-04T20:34:22.393Z,16.74
2023-05-04T20:36:51.334Z,16.78
2023-05-04T20:39:21.553Z,16.78
2023-05-04T20:41:50.502Z,16.60
2023-05-04T20:44:23.590Z,16.54
2023-05-04T20:46:52.282Z,16.61
2023-05-04T20:49:23.363Z,16.56
2023-05-04T20:51:54.465Z,16.47
2023-05-04T20:54:24.225Z,16.59
2023-05-04T20:57:00.836Z,16.58
2023-05-04T20:59:34.830Z,16.49
2023-05-04T21:02:05.635Z,16.37
2023-05-04T21:04:33.796Z,16.31
2023-05-04T21:07:03.314Z,16.18
2023-05-04T21:09:31.392Z,16.11
2023-05-04T21:12:04.736Z,16.10
2023-05-04T21:14:34.431Z,15.99
2023-05-04T21:17:04.839Z,15.91
2023-05-04T21:19:33.911Z,15.73
2023-05-04T21:22:07.528Z,15.61
2023-05-04T21:24:36.365Z,15.58
2023-05-04T21:27:10.785Z,15.63
2023-05-04T21:29:41.896Z,15.58
2023-05-04T21:32:11.012Z,15.55
2023-05-04T21:34:39.270Z,15.51
2023-05-04T21:37:14.589Z,15.44
2023-05-04T21:39:42.887Z,15.43
2023-05-04T21:42:12.935Z,15.49
2023-05-04T21:44:44.474Z,15.51
2023-05-04T21:47:12.606Z,15.47
2023-05-04T21:49:40.789Z,15.51
2023-05-04T21:52:11.057Z,15.42
2023-05-04T21:54:39.219Z,15.26
2023-05-04T21:57:07.051Z,15.35
2023-05-04T21:59:35.001Z,15.32
2023-05-04T22:02:05.633Z,15.36
2023-05-04T22:04:35.206Z,15.46
2023-05-04T22:07:03.607Z,15.42
2023-05-04T22:09:32.785Z,15.24
2023-05-04T22:12:00.595Z,15.04
2023-05-04T22:14:29.295Z,14.97
2023-05-04T22:16:58.561Z,14.94
2023-05-04T22:19:29.649Z,14.69
2023-05-04T22:21:58.871Z,14.61
2023-05-04T22:24:29.791Z,14.51
2023-05-04T22:26:58.260Z,14.47
2023-05-04T22:29:30.850Z,14.37
2023-05-04T22:32:03.203Z,14.47
2023-05-04T22:34:33.809Z,14.42
2023-05-04T22:37:04.783Z,14.47
2023-05-04T22:39:33.528Z,14.23
2023-05-04T22:42:03.388Z,14.25
2023-05-04T22:44:33.969Z,14.11
2023-05-04T22:47:04.263Z,14.16
2023-05-04T22:49:35.770Z,14.12
2023-05-04T22:52:06.003Z,14.15
2023-05-04T22:54:35.584Z,14.16
2023-05-04T22:57:03.602Z,14.20
2023-05-04T22:59:31.731Z,14.12
2023-05-04T23:01:59.933Z,14.15
2023-05-04T23:04:30.049Z,14.17
2023-05-04T23:06:59.863Z,14.17
2023-05-04T23:09:28.984Z,14.24
2023-05-04T23:11:58.749Z,14.31
2023-05-04T23:14:27.452Z,14.29
2023-05-04T23:16:56.594Z,14.42
2023-05-04T23:19:24.518Z,14.40
2023-05-04T23:21:54.166Z,14.41
2023-05-04T23:24:24.875Z,14.49
2023-05-04T23:26:56.000Z,14.47
2023-05-04T23:29:24.082Z,14.63
2023-05-04T23:31:52.717Z,14.57
2023-05-04T23:34:21.898Z,14.52
2023-05-04T23:36:50.434Z,14.50
2023-05-04T23:39:18.922Z,14.49
2023-05-04T23:41:48.449Z,14.56
2023-05-04T23:44:17.869Z,14.51
2023-05-04T23:46:47.881Z,14.36
2023-05-04T23:49:19.047Z,14.34
2023-05-04T23:51:47.206Z,14.23
2023-05-04T23:54:19.729Z,14.31
2023-05-04T23:56:51.534Z,14.32
2023-05-04T23:59:19.984Z,14.39
